• Join FlightAware (Why Join?)
  • Login
  • US Flag 
02:06PM EDT


 

Airport Tracker/Info


-or-


 

Live Flight TrackerFlight Track Log ✈ DAL6231 ✈ 25-Apr-2013 ✈ KLGA - CYHZ

Flight Track Log - Related Links

Times and Time Zones

All times are in EDT time to prevent confusion due to time zone crossing. See the DAL6231 flight status page for this flight to view local times or setup timezone preferences in your user account.

Time Position Orientation Groundspeed Altitude Reporting Facility
EDT Latitude Longitude Course Direction KTS MPH feet Rate Location/Type
10:55PM 40.7667 -73.8000 51° Northeast 202 232 2,500  Level New York TRACON
10:56PM 40.8167 -73.7500 37° Northeast 230 265 5,000 2,280 Climbing New York TRACON
10:57PM 40.8667 -73.7000 37° Northeast 267 307 7,100 2,040 Climbing New York TRACON
10:59PM 41.0409 -73.5479 40° Northeast  Level FlightAware Approximate
11:00PM 41.4257 -73.0294 51° Northeast  Level FlightAware Approximate
11:00PM 41.0850 -73.4644 40° Northeast 324 373 13,800  Level Boston Center
11:01PM 41.1733 -73.3667 40° Northeast 364 419 15,500 1,680 Climbing Boston Center
11:03PM 41.3414 -73.1867 39° Northeast 399 459 19,000 1,620 Climbing Boston Center
11:04PM 41.4214 -73.0575 50° Northeast 404 465 20,500 1,440 Climbing Boston Center
11:05PM 41.4803 -72.9167 61° Northeast 415 478 21,900 1,200 Climbing Boston Center
11:06PM 41.5328 -72.8006 59° Northeast 428 493 23,000 1,140 Climbing Boston Center
11:07PM 41.6000 -72.6428 60° Northeast 439 505 24,200 1,020 Climbing Boston Center
11:09PM 41.7375 -72.3317 59° Northeast 473 544 26,200 960 Climbing Boston Center
11:11PM 41.8162 -72.1206 58° Northeast  Level FlightAware Approximate
11:13PM 42.0772 -71.7464 32° Northeast 495 570 30,100  Level Boston Center
11:15PM 42.1830 -71.6420 32° Northeast  Level FlightAware Approximate
11:18PM 42.4192 -71.4441 32° Northeast  Level FlightAware Approximate
11:20PM 43.0039 -70.9808 32° Northeast 553 636 33,000  Level Boston Center
11:21PM 43.1314 -70.8669 33° Northeast 548 631 33,000  Level Boston Center
11:22PM 42.8647 -71.0659 32° Northeast  Level FlightAware Approximate
11:23PM 42.9625 -70.9838 31° Northeast  Level FlightAware Approximate
11:23PM 43.2769 -70.7312 34° Northeast  Level FlightAware Approximate
11:24PM 43.0602 -70.9017 32° Northeast  Level FlightAware Approximate
11:25PM 43.1580 -70.8194 32° Northeast  Level FlightAware Approximate
11:26PM 43.6167 -70.1500 58° Northeast 550 633 33,000  Level Moncton Center
11:27PM 43.7000 -69.9667 58° Northeast 550 633 33,000  Level Moncton Center
11:28PM 43.7667 -69.7667 65° Northeast 550 633 33,000  Level Moncton Center
11:28PM 43.8189 -69.7322 25° Northeast 547 629 33,000  Level Boston Center
11:30PM 43.7508 -69.8558 58° Northeast  Level FlightAware Approximate
11:30PM 43.9333 -69.4167 63° Northeast 550 633 33,000  Level Moncton Center
11:31PM 43.8112 -69.7207 58° Northeast  Level FlightAware Approximate
11:31PM 44.0333 -69.2333 53° Northeast 550 633 33,000  Level Moncton Center
11:31PM 44.0569 -69.1839 56° Northeast 547 629 33,000  Level Boston Center
11:32PM 44.1389 -69.0003 58° Northeast 552 635 33,000  Level Boston Center
11:33PM 44.2167 -68.8158 59° Northeast 552 635 33,000  Level Boston Center
11:35PM 44.3333 -68.4833 64° Northeast 540 621 33,000  Level Moncton Center
11:36PM 44.4167 -68.3000 57° Northeast 540 621 33,000  Level Moncton Center
11:36PM 44.4464 -68.2753 31° Northeast 542 624 33,000  Level Boston Center
11:37PM 44.5286 -68.0744 60° Northeast 542 624 33,000  Level Boston Center
11:38PM 44.6028 -67.8908 60° Northeast 542 624 33,000  Level Boston Center
11:39PM 44.6811 -67.7094 59° Northeast 542 624 33,000  Level Boston Center
11:41PM 44.8000 -67.3833 63° Northeast 540 621 33,000  Level Moncton Center
11:42PM 44.8500 -67.2333 65° Northeast 540 621 33,000  Level Moncton Center
11:43PM 44.8833 -67.0167 78° East 510 587 33,000  Level Moncton Center
11:44PM 44.9000 -66.8333 83° East 500 575 33,000  Level Moncton Center
11:45PM 44.9000 -66.6333 90° East 490 564 33,000  Level Moncton Center
11:46PM 44.9000 -66.4333 90° East 490 564 33,000  Level Moncton Center
11:47PM 44.9000 -66.2333 90° East 490 564 33,000  Level Moncton Center
11:48PM 44.9167 -66.0500 83° East 500 575 33,000  Level Moncton Center
11:49PM 44.9167 -65.8667 90° East 500 575 33,000  Level Moncton Center
11:50PM 44.9167 -65.6500 90° East 500 575 33,000  Level Moncton Center
11:51PM 44.9167 -65.4667 90° East 500 575 33,000 -360 Level Moncton Center
11:52PM 44.9167 -65.2667 90° East 500 575 32,300 -1,260 Descending Moncton Center
11:53PM 44.9167 -65.0667 90° East 510 587 30,500 -1,980 Descending Moncton Center
11:54PM 44.9167 -64.8667 90° East 490 564 28,400 -2,460 Descending Moncton Center
11:55PM 44.9167 -64.6833 90° East 470 541 25,600 -3,060 Descending Moncton Center
11:56PM 44.9167 -64.5167 90° East 450 518 22,300 -3,300 Descending Moncton Center
11:57PM 44.9167 -64.3500 90° East 430 495 19,100 -3,420 Descending Moncton Center
11:58PM 44.9167 -64.1833 90° East 400 460 15,500 -3,300 Descending Moncton Center
11:59PM 44.9167 -64.0500 90° East 390 449 12,600 -1,980 Descending Moncton Center
12:00AM 44.9667 -63.9167 62° Northeast 350 403 11,600 -960 Descending Moncton Center
12:01AM 45.0000 -63.8333 60° Northeast 300 345 10,700 -960 Descending Moncton Center
12:02AM 45.0333 -63.7333 65° Northeast 270 311 9,700 -1,020 Descending Moncton Center
12:03AM 45.0667 -63.6333 65° Northeast 240 276 8,700 -1,020 Descending Moncton Center
12:04AM 45.0833 -63.5500 74° East 240 276 7,700 -1,080 Descending Moncton Center
12:05AM 45.1000 -63.4667 74° East 210 242 6,600 -1,260 Descending Moncton Center
12:06AM 45.0833 -63.4333 125° Southeast 170 196 5,200 -1,560 Descending Moncton Center
12:07AM 45.0500 -63.3833 133° Southeast 150 173 3,500 -1,440 Descending Moncton Center
12:08AM 45.0000 -63.3833 180° South 150 173 2,400 -600 Descending Moncton Center
12:09AM 44.9667 -63.4000 199° South 150 173 2,400 -240 Level Moncton Center
12:10AM 44.9333 -63.4333 215° Southwest 150 173 2,000 -600 Descending Moncton Center
12:11AM 44.9000 -63.4833 227° Southwest 150 173 1,200 -780 Descending Moncton Center
12:12AM 44.8667 -63.5000 200° South 150 173 500 -720 Descending Moncton Center